sensor_id;sensor_type;location;lat;lon;timestamp;pressure;altitude;pressure_sealevel;temperature;humidity
7940;BME280;4015;48.888;9.226;2023-09-18T00:01:24;160223.91;;;19.81;84.81
7940;BME280;4015;48.888;9.226;2023-09-18T00:03:49;160214.91;;;19.78;85.31
7940;BME280;4015;48.888;9.226;2023-09-18T00:06:14;160204.66;;;19.74;84.70
7940;BME280;4015;48.888;9.226;2023-09-18T00:08:40;160208.50;;;19.75;85.09
7940;BME280;4015;48.888;9.226;2023-09-18T00:11:05;160211.06;;;19.76;85.48
7940;BME280;4015;48.888;9.226;2023-09-18T00:13:32;160213.63;;;19.77;84.63
7940;BME280;4015;48.888;9.226;2023-09-18T00:15:57;160220.03;;;19.80;85.04
7940;BME280;4015;48.888;9.226;2023-09-18T00:18:24;160223.91;;;19.81;85.01
7940;BME280;4015;48.888;9.226;2023-09-18T00:20:50;160227.75;;;19.83;84.74
7940;BME280;4015;48.888;9.226;2023-09-18T00:23:17;160240.63;;;19.88;84.59
7940;BME280;4015;48.888;9.226;2023-09-18T00:25:42;160238.06;;;19.87;84.53
7940;BME280;4015;48.888;9.226;2023-09-18T00:28:08;160239.34;;;19.87;84.19
7940;BME280;4015;48.888;9.226;2023-09-18T00:30:33;160254.75;;;19.93;85.11
7940;BME280;4015;48.888;9.226;2023-09-18T00:32:59;160247.00;;;19.90;85.53
7940;BME280;4015;48.888;9.226;2023-09-18T00:35:24;160258.59;;;19.95;85.10
7940;BME280;4015;48.888;9.226;2023-09-18T00:37:50;160258.59;;;19.95;84.62
7940;BME280;4015;48.888;9.226;2023-09-18T00:40:15;160275.28;;;20.02;84.28
7940;BME280;4015;48.888;9.226;2023-09-18T00:42:40;160258.59;;;19.95;84.99
7940;BME280;4015;48.888;9.226;2023-09-18T00:45:06;160263.72;;;19.97;84.85
7940;BME280;4015;48.888;9.226;2023-09-18T00:47:31;160253.47;;;19.93;84.81
7940;BME280;4015;48.888;9.226;2023-09-18T00:49:57;160297.09;;;20.10;83.69
7940;BME280;4015;48.888;9.226;2023-09-18T00:52:23;160297.09;;;20.10;84.15
7940;BME280;4015;48.888;9.226;2023-09-18T00:54:50;160307.41;;;20.14;83.42
7940;BME280;4015;48.888;9.226;2023-09-18T00:57:16;160321.53;;;20.20;83.16
7940;BME280;4015;48.888;9.226;2023-09-18T00:59:41;160349.81;;;20.31;83.38
7940;BME280;4015;48.888;9.226;2023-09-18T01:02:07;160363.94;;;20.37;83.10
7940;BME280;4015;48.888;9.226;2023-09-18T01:04:33;160392.22;;;20.48;82.54
7940;BME280;4015;48.888;9.226;2023-09-18T01:07:00;160407.66;;;20.54;83.22
7940;BME280;4015;48.888;9.226;2023-09-18T01:09:29;160411.53;;;20.56;81.79
7940;BME280;4015;48.888;9.226;2023-09-18T01:12:06;160414.09;;;20.57;82.22
7940;BME280;4015;48.888;9.226;2023-09-18T01:17:05;160417.94;;;20.58;81.62
7940;BME280;4015;48.888;9.226;2023-09-18T01:19:38;160423.06;;;20.60;81.91
7940;BME280;4015;48.888;9.226;2023-09-18T01:22:05;160432.09;;;20.64;81.30
7940;BME280;4015;48.888;9.226;2023-09-18T01:24:35;160444.94;;;20.69;81.50
7940;BME280;4015;48.888;9.226;2023-09-18T01:27:01;160443.66;;;20.68;81.33
7940;BME280;4015;48.888;9.226;2023-09-18T01:29:27;160452.63;;;20.72;81.13
7940;BME280;4015;48.888;9.226;2023-09-18T01:31:53;160453.91;;;20.72;81.30
7940;BME280;4015;48.888;9.226;2023-09-18T01:34:21;160457.75;;;20.74;81.25
7940;BME280;4015;48.888;9.226;2023-09-18T01:36:47;160478.34;;;20.82;81.88
7940;BME280;4015;48.888;9.226;2023-09-18T01:39:15;160488.59;;;20.86;80.32
7940;BME280;4015;48.888;9.226;2023-09-18T01:41:42;160510.47;;;20.95;80.17
7940;BME280;4015;48.888;9.226;2023-09-18T01:44:07;160513.03;;;20.96;79.64
7940;BME280;4015;48.888;9.226;2023-09-18T01:46:33;160509.19;;;20.94;80.29
7940;BME280;4015;48.888;9.226;2023-09-18T01:49:01;160529.75;;;21.02;80.09
7940;BME280;4015;48.888;9.226;2023-09-18T01:51:27;160546.44;;;21.09;80.10
7940;BME280;4015;48.888;9.226;2023-09-18T01:53:52;160552.84;;;21.12;79.61
7940;BME280;4015;48.888;9.226;2023-09-18T01:56:18;160555.47;;;21.13;79.18
7940;BME280;4015;48.888;9.226;2023-09-18T01:58:43;160561.88;;;21.15;79.58
7940;BME280;4015;48.888;9.226;2023-09-18T02:01:08;160546.44;;;21.09;80.46
7940;BME280;4015;48.888;9.226;2023-09-18T02:03:34;160579.84;;;21.22;79.09
7940;BME280;4015;48.888;9.226;2023-09-18T02:06:00;160581.13;;;21.23;80.39
7940;BME280;4015;48.888;9.226;2023-09-18T02:08:25;160556.75;;;21.13;81.92
7940;BME280;4015;48.888;9.226;2023-09-18T02:10:50;160540.03;;;21.07;81.51
7940;BME280;4015;48.888;9.226;2023-09-18T02:13:15;160527.19;;;21.01;82.49
7940;BME280;4015;48.888;9.226;2023-09-18T02:15:43;160498.91;;;20.90;85.17
7940;BME280;4015;48.888;9.226;2023-09-18T02:18:09;160468.03;;;20.78;85.53
7940;BME280;4015;48.888;9.226;2023-09-18T02:20:40;160451.34;;;20.71;87.62
7940;BME280;4015;48.888;9.226;2023-09-18T02:23:06;160437.22;;;20.66;84.23
7940;BME280;4015;48.888;9.226;2023-09-18T02:25:31;160433.34;;;20.64;84.54
7940;BME280;4015;48.888;9.226;2023-09-18T02:27:56;160407.66;;;20.54;86.83
7940;BME280;4015;48.888;9.226;2023-09-18T02:30:22;160407.66;;;20.54;86.37
7940;BME280;4015;48.888;9.226;2023-09-18T02:32:47;160414.09;;;20.57;86.73
7940;BME280;4015;48.888;9.226;2023-09-18T02:35:13;160384.53;;;20.45;88.86
7940;BME280;4015;48.888;9.226;2023-09-18T02:37:38;160388.38;;;20.46;91.63
7940;BME280;4015;48.888;9.226;2023-09-18T02:40:04;160353.66;;;20.33;88.98
7940;BME280;4015;48.888;9.226;2023-09-18T02:42:30;160385.81;;;20.45;89.57
7940;BME280;4015;48.888;9.226;2023-09-18T02:44:55;160357.50;;;20.34;89.82
7940;BME280;4015;48.888;9.226;2023-09-18T02:47:21;160347.25;;;20.30;90.41
7940;BME280;4015;48.888;9.226;2023-09-18T02:49:46;160343.34;;;20.29;89.51
7940;BME280;4015;48.888;9.226;2023-09-18T02:52:11;160370.34;;;20.39;87.65
7940;BME280;4015;48.888;9.226;2023-09-18T02:54:37;160410.22;;;20.55;87.37
7940;BME280;4015;48.888;9.226;2023-09-18T02:57:02;160417.94;;;20.58;87.05
7940;BME280;4015;48.888;9.226;2023-09-18T02:59:27;160429.53;;;20.63;87.01
7940;BME280;4015;48.888;9.226;2023-09-18T03:01:53;160435.91;;;20.65;87.99
7940;BME280;4015;48.888;9.226;2023-09-18T03:04:19;160455.19;;;20.73;87.52
7940;BME280;4015;48.888;9.226;2023-09-18T03:06:44;160448.78;;;20.70;86.29
7940;BME280;4015;48.888;9.226;2023-09-18T03:09:10;160424.34;;;20.61;87.98
7940;BME280;4015;48.888;9.226;2023-09-18T03:11:35;160403.81;;;20.53;89.35
7940;BME280;4015;48.888;9.226;2023-09-18T03:14:00;160374.19;;;20.41;88.92
7940;BME280;4015;48.888;9.226;2023-09-18T03:16:26;160381.94;;;20.44;90.65
7940;BME280;4015;48.888;9.226;2023-09-18T03:18:51;160389.66;;;20.47;89.83
7940;BME280;4015;48.888;9.226;2023-09-18T03:21:16;160381.94;;;20.44;89.82
7940;BME280;4015;48.888;9.226;2023-09-18T03:23:41;160343.34;;;20.29;90.22
7940;BME280;4015;48.888;9.226;2023-09-18T03:26:07;160325.38;;;20.21;91.16
7940;BME280;4015;48.888;9.226;2023-09-18T03:28:32;160311.25;;;20.16;92.58
7940;BME280;4015;48.888;9.226;2023-09-18T03:30:58;160284.31;;;20.05;90.60
7940;BME280;4015;48.888;9.226;2023-09-18T03:33:23;160270.16;;;20.00;90.20
7940;BME280;4015;48.888;9.226;2023-09-18T03:35:50;160259.88;;;19.96;91.76
7940;BME280;4015;48.888;9.226;2023-09-18T03:38:17;160281.69;;;20.04;91.44
7940;BME280;4015;48.888;9.226;2023-09-18T03:40:42;160302.28;;;20.12;90.84
7940;BME280;4015;48.888;9.226;2023-09-18T03:43:09;160281.69;;;20.04;89.99
7940;BME280;4015;48.888;9.226;2023-09-18T03:45:35;160267.56;;;19.99;90.95
7940;BME280;4015;48.888;9.226;2023-09-18T03:48:00;160227.75;;;19.83;91.35
7940;BME280;4015;48.888;9.226;2023-09-18T03:50:26;160268.88;;;19.99;91.17
7940;BME280;4015;48.888;9.226;2023-09-18T03:52:52;160234.16;;;19.85;92.43
7940;BME280;4015;48.888;9.226;2023-09-18T03:55:17;160261.16;;;19.96;91.71
7940;BME280;4015;48.888;9.226;2023-09-18T03:57:43;160256.03;;;19.94;92.47
7940;BME280;4015;48.888;9.226;2023-09-18T04:00:10;160257.31;;;19.94;92.49
7940;BME280;4015;48.888;9.226;2023-09-18T04:02:36;160258.59;;;19.95;93.18
7940;BME280;4015;48.888;9.226;2023-09-18T04:05:01;160282.97;;;20.05;91.38
7940;BME280;4015;48.888;9.226;2023-09-18T04:07:28;160299.72;;;20.11;91.21
7940;BME280;4015;48.888;9.226;2023-09-18T04:09:53;160311.25;;;20.16;91.52
7940;BME280;4015;48.888;9.226;2023-09-18T04:12:19;160316.41;;;20.18;92.45
7940;BME280;4015;48.888;9.226;2023-09-18T04:14:44;160335.66;;;20.26;91.32
7940;BME280;4015;48.888;9.226;2023-09-18T04:17:09;160326.66;;;20.22;93.42
7940;BME280;4015;48.888;9.226;2023-09-18T04:19:35;160320.25;;;20.19;92.73
7940;BME280;4015;48.888;9.226;2023-09-18T04:22:00;160303.56;;;20.13;92.93
7940;BME280;4015;48.888;9.226;2023-09-18T04:24:26;160298.38;;;20.11;95.64
7940;BME280;4015;48.888;9.226;2023-09-18T04:26:51;160270.16;;;20.00;96.07
7940;BME280;4015;48.888;9.226;2023-09-18T04:29:17;160266.28;;;19.98;97.15
7940;BME280;4015;48.888;9.226;2023-09-18T04:31:43;160277.84;;;20.03;96.93
7940;BME280;4015;48.888;9.226;2023-09-18T04:34:08;160262.44;;;19.97;96.87
7940;BME280;4015;48.888;9.226;2023-09-18T04:36:34;160240.63;;;19.88;97.19
7940;BME280;4015;48.888;9.226;2023-09-18T04:38:59;160204.66;;;19.74;97.64
7940;BME280;4015;48.888;9.226;2023-09-18T04:41:24;160176.41;;;19.62;98.59
7940;BME280;4015;48.888;9.226;2023-09-18T04:43:50;160133.97;;;19.46;97.47
7940;BME280;4015;48.888;9.226;2023-09-18T04:46:16;160137.78;;;19.47;95.74
7940;BME280;4015;48.888;9.226;2023-09-18T04:48:41;160145.53;;;19.50;96.41
7940;BME280;4015;48.888;9.226;2023-09-18T04:51:06;160158.38;;;19.55;95.35
7940;BME280;4015;48.888;9.226;2023-09-18T04:53:32;160172.50;;;19.61;96.29
7940;BME280;4015;48.888;9.226;2023-09-18T04:55:58;160184.09;;;19.65;95.60
7940;BME280;4015;48.888;9.226;2023-09-18T04:58:23;160176.41;;;19.62;96.03
7940;BME280;4015;48.888;9.226;2023-09-18T05:00:56;160160.94;;;19.56;95.69
7940;BME280;4015;48.888;9.226;2023-09-18T05:03:21;160169.94;;;19.60;96.44
7940;BME280;4015;48.888;9.226;2023-09-18T05:05:47;160155.78;;;19.54;96.97
7940;BME280;4015;48.888;9.226;2023-09-18T05:08:13;160182.81;;;19.65;97.03
7940;BME280;4015;48.888;9.226;2023-09-18T05:10:38;160153.22;;;19.53;97.90
7940;BME280;4015;48.888;9.226;2023-09-18T05:13:04;160177.69;;;19.63;98.54
7940;BME280;4015;48.888;9.226;2023-09-18T05:15:30;160182.81;;;19.65;98.16
7940;BME280;4015;48.888;9.226;2023-09-18T05:17:57;160132.69;;;19.45;98.36
7940;BME280;4015;48.888;9.226;2023-09-18T05:20:27;160144.25;;;19.50;97.90
7940;BME280;4015;48.888;9.226;2023-09-18T05:22:54;160146.81;;;19.51;96.95
7940;BME280;4015;48.888;9.226;2023-09-18T05:25:20;160131.41;;;19.45;97.45
7940;BME280;4015;48.888;9.226;2023-09-18T05:27:47;160139.06;;;19.48;96.55
7940;BME280;4015;48.888;9.226;2023-09-18T05:30:19;160144.25;;;19.50;97.86
7940;BME280;4015;48.888;9.226;2023-09-18T05:32:47;160137.78;;;19.47;98.84
7940;BME280;4015;48.888;9.226;2023-09-18T05:35:13;160110.88;;;19.36;99.30
7940;BME280;4015;48.888;9.226;2023-09-18T05:37:39;160133.97;;;19.46;97.88
7940;BME280;4015;48.888;9.226;2023-09-18T05:40:06;160123.66;;;19.41;99.13
7940;BME280;4015;48.888;9.226;2023-09-18T05:42:34;160136.50;;;19.47;98.88
7940;BME280;4015;48.888;9.226;2023-09-18T05:45:00;160173.84;;;19.61;98.06
7940;BME280;4015;48.888;9.226;2023-09-18T05:47:25;160189.25;;;19.67;98.07
7940;BME280;4015;48.888;9.226;2023-09-18T05:49:50;160189.25;;;19.67;98.22
7940;BME280;4015;48.888;9.226;2023-09-18T05:52:16;160207.22;;;19.75;97.74
7940;BME280;4015;48.888;9.226;2023-09-18T05:54:41;160196.94;;;19.71;96.85
7940;BME280;4015;48.888;9.226;2023-09-18T05:57:06;160186.66;;;19.66;97.73
7940;BME280;4015;48.888;9.226;2023-09-18T05:59:32;160185.38;;;19.66;97.20
7940;BME280;4015;48.888;9.226;2023-09-18T06:01:57;160199.50;;;19.72;96.33
7940;BME280;4015;48.888;9.226;2023-09-18T06:04:22;160227.75;;;19.83;94.54
7940;BME280;4015;48.888;9.226;2023-09-18T06:06:49;160220.03;;;19.80;94.31
7940;BME280;4015;48.888;9.226;2023-09-18T06:09:14;160238.06;;;19.87;94.06
7940;BME280;4015;48.888;9.226;2023-09-18T06:11:39;160256.03;;;19.94;91.73
7940;BME280;4015;48.888;9.226;2023-09-18T06:14:05;160280.41;;;20.04;92.69
7940;BME280;4015;48.888;9.226;2023-09-18T06:16:30;160291.97;;;20.08;90.76
7940;BME280;4015;48.888;9.226;2023-09-18T06:18:56;160293.25;;;20.09;92.53
7940;BME280;4015;48.888;9.226;2023-09-18T06:21:21;160276.56;;;20.02;91.44
7940;BME280;4015;48.888;9.226;2023-09-18T06:23:47;160227.75;;;19.83;93.12
7940;BME280;4015;48.888;9.226;2023-09-18T06:26:12;160263.72;;;19.97;93.39
7940;BME280;4015;48.888;9.226;2023-09-18T06:28:39;160243.19;;;19.89;95.29
7940;BME280;4015;48.888;9.226;2023-09-18T06:31:04;160244.47;;;19.89;93.10
7940;BME280;4015;48.888;9.226;2023-09-18T06:33:29;160254.75;;;19.93;92.03
7940;BME280;4015;48.888;9.226;2023-09-18T06:35:55;160262.44;;;19.97;93.01
7940;BME280;4015;48.888;9.226;2023-09-18T06:38:21;160267.56;;;19.99;93.64
7940;BME280;4015;48.888;9.226;2023-09-18T06:40:46;160275.28;;;20.02;90.91
7940;BME280;4015;48.888;9.226;2023-09-18T06:43:12;160275.28;;;20.02;93.58
7940;BME280;4015;48.888;9.226;2023-09-18T06:45:38;160307.41;;;20.14;91.96
7940;BME280;4015;48.888;9.226;2023-09-18T06:48:04;160315.09;;;20.17;91.95
7940;BME280;4015;48.888;9.226;2023-09-18T06:50:30;160338.25;;;20.27;90.07
7940;BME280;4015;48.888;9.226;2023-09-18T06:52:56;160370.34;;;20.39;89.85
7940;BME280;4015;48.888;9.226;2023-09-18T06:55:21;160369.06;;;20.39;91.67
7940;BME280;4015;48.888;9.226;2023-09-18T06:57:47;160358.78;;;20.35;90.55
7940;BME280;4015;48.888;9.226;2023-09-18T07:00:14;160369.06;;;20.39;90.16
7940;BME280;4015;48.888;9.226;2023-09-18T07:02:46;160370.34;;;20.39;91.43
7940;BME280;4015;48.888;9.226;2023-09-18T07:05:11;160374.19;;;20.41;89.75
7940;BME280;4015;48.888;9.226;2023-09-18T07:07:37;160406.38;;;20.54;89.22
7940;BME280;4015;48.888;9.226;2023-09-18T07:10:02;160416.66;;;20.58;91.33
7940;BME280;4015;48.888;9.226;2023-09-18T07:12:28;160428.25;;;20.62;91.59
7940;BME280;4015;48.888;9.226;2023-09-18T07:14:53;160424.34;;;20.61;91.10
7940;BME280;4015;48.888;9.226;2023-09-18T07:17:18;160456.47;;;20.73;88.64
7940;BME280;4015;48.888;9.226;2023-09-18T07:19:44;160459.09;;;20.74;88.87
7940;BME280;4015;48.888;9.226;2023-09-18T07:22:09;160483.47;;;20.84;89.02
7940;BME280;4015;48.888;9.226;2023-09-18T07:24:34;160498.91;;;20.90;88.94
7940;BME280;4015;48.888;9.226;2023-09-18T07:27:00;160506.63;;;20.93;88.92
7940;BME280;4015;48.888;9.226;2023-09-18T07:29:25;160534.88;;;21.05;89.32
7940;BME280;4015;48.888;9.226;2023-09-18T07:31:51;160543.88;;;21.08;87.33
7940;BME280;4015;48.888;9.226;2023-09-18T07:34:17;160552.84;;;21.12;85.67
7940;BME280;4015;48.888;9.226;2023-09-18T07:36:42;160569.63;;;21.18;86.75
7940;BME280;4015;48.888;9.226;2023-09-18T07:39:09;160576.00;;;21.21;88.50
7940;BME280;4015;48.888;9.226;2023-09-18T07:41:34;160564.44;;;21.16;89.58
7940;BME280;4015;48.888;9.226;2023-09-18T07:44:00;160549.00;;;21.10;90.05
7940;BME280;4015;48.888;9.226;2023-09-18T07:46:25;160536.16;;;21.05;91.45
7940;BME280;4015;48.888;9.226;2023-09-18T07:48:51;160546.44;;;21.09;91.04
7940;BME280;4015;48.888;9.226;2023-09-18T07:51:16;160579.84;;;21.22;91.61
7940;BME280;4015;48.888;9.226;2023-09-18T07:53:42;160567.00;;;21.17;86.16
7940;BME280;4015;48.888;9.226;2023-09-18T07:56:08;160608.19;;;21.34;86.47
7940;BME280;4015;48.888;9.226;2023-09-18T07:58:34;160633.94;;;21.44;84.95
7940;BME280;4015;48.888;9.226;2023-09-18T08:01:03;160639.06;;;21.46;88.04
7940;BME280;4015;48.888;9.226;2023-09-18T08:03:32;160650.63;;;21.50;87.91
7940;BME280;4015;48.888;9.226;2023-09-18T08:05:57;160672.47;;;21.59;85.82
7940;BME280;4015;48.888;9.226;2023-09-18T08:08:23;160716.19;;;21.76;87.08
7940;BME280;4015;48.888;9.226;2023-09-18T08:10:52;160772.75;;;21.99;88.50
7940;BME280;4015;48.888;9.226;2023-09-18T08:13:17;160813.97;;;22.15;85.53
7940;BME280;4015;48.888;9.226;2023-09-18T08:15:43;160835.81;;;22.24;84.17
7940;BME280;4015;48.888;9.226;2023-09-18T08:18:09;160853.81;;;22.31;84.02
7940;BME280;4015;48.888;9.226;2023-09-18T08:20:36;160847.41;;;22.28;83.37
7940;BME280;4015;48.888;9.226;2023-09-18T08:23:03;160824.28;;;22.19;82.47
7940;BME280;4015;48.888;9.226;2023-09-18T08:25:31;160819.09;;;22.17;81.66
7940;BME280;4015;48.888;9.226;2023-09-18T08:27:56;160793.34;;;22.07;80.75
7940;BME280;4015;48.888;9.226;2023-09-18T08:30:21;160770.19;;;21.98;82.89
7940;BME280;4015;48.888;9.226;2023-09-18T08:32:47;160736.75;;;21.85;80.94
7940;BME280;4015;48.888;9.226;2023-09-18T08:35:12;160739.31;;;21.86;81.45
7940;BME280;4015;48.888;9.226;2023-09-18T08:37:40;160702.06;;;21.71;80.63
7940;BME280;4015;48.888;9.226;2023-09-18T08:40:06;160664.78;;;21.56;80.47
7940;BME280;4015;48.888;9.226;2023-09-18T08:42:35;160630.03;;;21.42;82.51
7940;BME280;4015;48.888;9.226;2023-09-18T08:45:06;160631.31;;;21.43;82.18
7940;BME280;4015;48.888;9.226;2023-09-18T08:47:32;160646.75;;;21.49;81.43
7940;BME280;4015;48.888;9.226;2023-09-18T08:49:58;160666.06;;;21.57;80.19
7940;BME280;4015;48.888;9.226;2023-09-18T08:52:25;160657.03;;;21.53;81.91
7940;BME280;4015;48.888;9.226;2023-09-18T08:54:52;160663.44;;;21.55;82.89
7940;BME280;4015;48.888;9.226;2023-09-18T08:57:19;160640.34;;;21.46;80.80
7940;BME280;4015;48.888;9.226;2023-09-18T08:59:46;160594.00;;;21.28;82.07
7940;BME280;4015;48.888;9.226;2023-09-18T09:02:12;160561.88;;;21.15;82.43
7940;BME280;4015;48.888;9.226;2023-09-18T09:04:38;160532.31;;;21.04;83.46
7940;BME280;4015;48.888;9.226;2023-09-18T09:07:04;160505.28;;;20.93;83.20
7940;BME280;4015;48.888;9.226;2023-09-18T09:09:30;160483.47;;;20.84;84.95
7940;BME280;4015;48.888;9.226;2023-09-18T09:11:56;160425.63;;;20.61;86.31
7940;BME280;4015;48.888;9.226;2023-09-18T09:14:21;160405.09;;;20.53;88.04
7940;BME280;4015;48.888;9.226;2023-09-18T09:16:53;160379.38;;;20.43;89.32
7940;BME280;4015;48.888;9.226;2023-09-18T09:19:34;160349.81;;;20.31;93.27
7940;BME280;4015;48.888;9.226;2023-09-18T09:22:04;160338.25;;;20.27;93.57
7940;BME280;4015;48.888;9.226;2023-09-18T09:24:38;160375.47;;;20.41;93.90
7940;BME280;4015;48.888;9.226;2023-09-18T09:27:04;160339.53;;;20.27;94.59
7940;BME280;4015;48.888;9.226;2023-09-18T09:29:29;160299.72;;;20.11;92.47
7940;BME280;4015;48.888;9.226;2023-09-18T09:31:55;160354.94;;;20.33;96.06
7940;BME280;4015;48.888;9.226;2023-09-18T09:34:26;160379.38;;;20.43;93.68
7940;BME280;4015;48.888;9.226;2023-09-18T09:36:55;160389.66;;;20.47;96.79
7940;BME280;4015;48.888;9.226;2023-09-18T09:39:21;160369.06;;;20.39;94.83
7940;BME280;4015;48.888;9.226;2023-09-18T09:41:52;160303.56;;;20.13;95.95
7940;BME280;4015;48.888;9.226;2023-09-18T09:44:17;160301.00;;;20.12;98.23
7940;BME280;4015;48.888;9.226;2023-09-18T09:46:50;160291.97;;;20.08;95.37
7940;BME280;4015;48.888;9.226;2023-09-18T09:49:17;160290.69;;;20.08;94.28
7940;BME280;4015;48.888;9.226;2023-09-18T09:51:45;160262.44;;;19.97;94.69
7940;BME280;4015;48.888;9.226;2023-09-18T09:54:10;160289.41;;;20.07;95.66
7940;BME280;4015;48.888;9.226;2023-09-18T09:56:48;160312.53;;;20.16;97.09
7940;BME280;4015;48.888;9.226;2023-09-18T09:59:15;160384.53;;;20.45;96.69
7940;BME280;4015;48.888;9.226;2023-09-18T10:01:43;160402.53;;;20.52;96.67
7940;BME280;4015;48.888;9.226;2023-09-18T10:04:15;160443.66;;;20.68;96.41
7940;BME280;4015;48.888;9.226;2023-09-18T10:06:50;160491.22;;;20.87;95.02
7940;BME280;4015;48.888;9.226;2023-09-18T10:09:17;160507.91;;;20.94;94.82
7940;BME280;4015;48.888;9.226;2023-09-18T10:11:45;160538.75;;;21.06;91.26
7940;BME280;4015;48.888;9.226;2023-09-18T10:14:16;160543.88;;;21.08;93.55
7940;BME280;4015;48.888;9.226;2023-09-18T10:16:49;160524.63;;;21.00;94.84
7940;BME280;4015;48.888;9.226;2023-09-18T10:19:31;160513.03;;;20.96;95.89
7940;BME280;4015;48.888;9.226;2023-09-18T10:22:20;160450.06;;;20.71;93.33
7940;BME280;4015;48.888;9.226;2023-09-18T10:24:50;160398.69;;;20.51;94.86
7940;BME280;4015;48.888;9.226;2023-09-18T10:27:18;160352.38;;;20.32;96.01
7940;BME280;4015;48.888;9.226;2023-09-18T10:29:49;160349.81;;;20.31;96.73
7940;BME280;4015;48.888;9.226;2023-09-18T10:32:17;160372.91;;;20.40;95.96
7940;BME280;4015;48.888;9.226;2023-09-18T10:34:44;160360.06;;;20.35;95.29
7940;BME280;4015;48.888;9.226;2023-09-18T10:37:11;160342.06;;;20.28;95.93
7940;BME280;4015;48.888;9.226;2023-09-18T10:39:38;160275.28;;;20.02;96.62
7940;BME280;4015;48.888;9.226;2023-09-18T10:42:10;160235.44;;;19.86;99.04
7940;BME280;4015;48.888;9.226;2023-09-18T10:44:37;160239.34;;;19.87;100.00
7940;BME280;4015;48.888;9.226;2023-09-18T10:47:06;160216.19;;;19.78;98.89
7940;BME280;4015;48.888;9.226;2023-09-18T10:49:32;160236.78;;;19.86;100.00
7940;BME280;4015;48.888;9.226;2023-09-18T10:51:57;160267.56;;;19.99;100.00
7940;BME280;4015;48.888;9.226;2023-09-18T10:54:25;160248.28;;;19.91;100.00
7940;BME280;4015;48.888;9.226;2023-09-18T10:56:51;160241.91;;;19.88;99.16
7940;BME280;4015;48.888;9.226;2023-09-18T10:59:17;160232.88;;;19.85;98.38
7940;BME280;4015;48.888;9.226;2023-09-18T11:01:43;160225.19;;;19.82;98.33
7940;BME280;4015;48.888;9.226;2023-09-18T11:04:10;160213.63;;;19.77;97.33
7940;BME280;4015;48.888;9.226;2023-09-18T11:09:27;160195.66;;;19.70;98.05
7940;BME280;4015;48.888;9.226;2023-09-18T11:14:23;160186.66;;;19.66;98.92
7940;BME280;4015;48.888;9.226;2023-09-18T11:16:51;160194.38;;;19.70;96.95
7940;BME280;4015;48.888;9.226;2023-09-18T11:19:17;160195.66;;;19.70;96.76
7940;BME280;4015;48.888;9.226;2023-09-18T11:21:43;160226.47;;;19.82;97.93
7940;BME280;4015;48.888;9.226;2023-09-18T11:24:21;160234.16;;;19.85;96.35
7940;BME280;4015;48.888;9.226;2023-09-18T11:26:49;160227.75;;;19.83;97.68
7940;BME280;4015;48.888;9.226;2023-09-18T11:29:21;160261.16;;;19.96;97.25
7940;BME280;4015;48.888;9.226;2023-09-18T11:31:55;160279.13;;;20.03;96.14
7940;BME280;4015;48.888;9.226;2023-09-18T11:36:57;160309.97;;;20.15;96.54
7940;BME280;4015;48.888;9.226;2023-09-18T11:39:36;160345.91;;;20.30;94.34
7940;BME280;4015;48.888;9.226;2023-09-18T11:42:32;160352.38;;;20.32;92.17
7940;BME280;4015;48.888;9.226;2023-09-18T11:44:57;160369.06;;;20.39;92.76
7940;BME280;4015;48.888;9.226;2023-09-18T11:47:24;160379.38;;;20.43;92.35
7940;BME280;4015;48.888;9.226;2023-09-18T11:49:51;160393.50;;;20.48;92.32
7940;BME280;4015;48.888;9.226;2023-09-18T11:52:20;160380.66;;;20.43;93.37
7940;BME280;4015;48.888;9.226;2023-09-18T11:54:47;160429.53;;;20.63;91.96
7940;BME280;4015;48.888;9.226;2023-09-18T11:57:13;160448.78;;;20.70;91.75
7940;BME280;4015;48.888;9.226;2023-09-18T11:59:40;160453.91;;;20.72;90.38
7940;BME280;4015;48.888;9.226;2023-09-18T12:02:08;160486.03;;;20.85;91.02
7940;BME280;4015;48.888;9.226;2023-09-18T12:04:34;160552.84;;;21.12;89.42
7940;BME280;4015;48.888;9.226;2023-09-18T12:07:00;160569.63;;;21.18;87.79
7940;BME280;4015;48.888;9.226;2023-09-18T12:09:31;160542.59;;;21.08;86.60
7940;BME280;4015;48.888;9.226;2023-09-18T12:11:58;160550.28;;;21.11;87.14
7940;BME280;4015;48.888;9.226;2023-09-18T12:14:24;160561.88;;;21.15;88.62
7940;BME280;4015;48.888;9.226;2023-09-18T12:16:50;160570.91;;;21.19;87.14
7940;BME280;4015;48.888;9.226;2023-09-18T12:19:19;160623.63;;;21.40;86.36
7940;BME280;4015;48.888;9.226;2023-09-18T12:21:47;160642.91;;;21.47;87.45
7940;BME280;4015;48.888;9.226;2023-09-18T12:24:23;160658.31;;;21.53;87.64
7940;BME280;4015;48.888;9.226;2023-09-18T12:26:50;160614.59;;;21.36;86.48
7940;BME280;4015;48.888;9.226;2023-09-18T12:29:16;160568.28;;;21.18;86.69
7940;BME280;4015;48.888;9.226;2023-09-18T12:31:41;160533.59;;;21.04;88.19
7940;BME280;4015;48.888;9.226;2023-09-18T12:34:20;160510.47;;;20.95;87.75
7940;BME280;4015;48.888;9.226;2023-09-18T12:36:47;160493.78;;;20.88;88.18
7940;BME280;4015;48.888;9.226;2023-09-18T12:39:13;160519.44;;;20.98;89.64
7940;BME280;4015;48.888;9.226;2023-09-18T12:41:41;160536.16;;;21.05;89.44
7940;BME280;4015;48.888;9.226;2023-09-18T12:44:08;160550.28;;;21.11;84.99
7940;BME280;4015;48.888;9.226;2023-09-18T12:46:34;160605.63;;;21.33;86.95
7940;BME280;4015;48.888;9.226;2023-09-18T12:49:14;160730.34;;;21.82;85.89
7940;BME280;4015;48.888;9.226;2023-09-18T12:51:40;160865.41;;;22.35;85.36
7940;BME280;4015;48.888;9.226;2023-09-18T12:54:05;161005.66;;;22.91;81.52
7940;BME280;4015;48.888;9.226;2023-09-18T12:56:31;161180.66;;;23.60;76.86
7940;BME280;4015;48.888;9.226;2023-09-18T12:58:57;161345.44;;;24.26;75.40
7940;BME280;4015;48.888;9.226;2023-09-18T13:01:24;161429.22;;;24.59;74.00
7940;BME280;4015;48.888;9.226;2023-09-18T13:03:49;161373.81;;;24.37;73.52
7940;BME280;4015;48.888;9.226;2023-09-18T13:06:18;161417.63;;;24.54;71.71
7940;BME280;4015;48.888;9.226;2023-09-18T13:08:44;161386.72;;;24.42;73.88
7940;BME280;4015;48.888;9.226;2023-09-18T13:11:09;161354.47;;;24.29;77.80
7940;BME280;4015;48.888;9.226;2023-09-18T13:13:37;161344.16;;;24.25;74.13
7940;BME280;4015;48.888;9.226;2023-09-18T13:16:07;161297.81;;;24.07;74.70
7940;BME280;4015;48.888;9.226;2023-09-18T13:18:34;161360.88;;;24.32;72.73